createdAt,value
2023-04-07T00:00:13.642Z,27.57
2023-04-07T00:02:44.504Z,30.23
2023-04-07T00:05:12.678Z,37.77
2023-04-07T00:07:52.271Z,33.33
2023-04-07T00:10:23.578Z,40.00
2023-04-07T00:12:51.655Z,28.13
2023-04-07T00:15:19.636Z,48.87
2023-04-07T00:17:49.233Z,30.33
2023-04-07T00:20:17.210Z,36.83
2023-04-07T00:22:45.400Z,27.13
2023-04-07T00:25:13.316Z,27.50
2023-04-07T00:27:41.208Z,33.90
2023-04-07T00:30:09.928Z,24.70
2023-04-07T00:32:37.885Z,24.40
2023-04-07T00:35:08.259Z,33.60
2023-04-07T00:37:36.292Z,23.77
2023-04-07T00:40:04.800Z,25.70
2023-04-07T00:42:34.181Z,25.17
2023-04-07T00:45:02.344Z,24.83
2023-04-07T00:47:30.361Z,22.30
2023-04-07T00:49:58.352Z,25.70
2023-04-07T00:52:30.056Z,35.97
2023-04-07T00:54:58.478Z,20.97
2023-04-07T00:57:26.756Z,19.90
2023-04-07T00:59:56.230Z,23.50
2023-04-07T01:02:32.365Z,21.67
2023-04-07T01:05:09.390Z,20.93
2023-04-07T01:07:47.601Z,29.03
2023-04-07T01:10:26.877Z,29.00
2023-04-07T01:13:06.936Z,27.00
2023-04-07T01:15:36.177Z,28.13
2023-04-07T01:18:11.764Z,22.93
2023-04-07T01:20:40.965Z,27.63
2023-04-07T01:23:11.619Z,21.13
2023-04-07T01:26:05.383Z,18.20
2023-04-07T01:28:47.694Z,26.57
2023-04-07T01:31:18.469Z,18.70
2023-04-07T01:33:47.187Z,25.77
2023-04-07T01:36:17.896Z,17.63
2023-04-07T01:38:46.768Z,24.53
2023-04-07T01:41:16.767Z,19.87
2023-04-07T01:43:46.250Z,14.70
2023-04-07T01:46:15.825Z,21.87
2023-04-07T01:48:43.927Z,21.10
2023-04-07T01:51:17.342Z,21.23
2023-04-07T01:53:46.323Z,19.03
2023-04-07T01:56:14.309Z,18.30
2023-04-07T01:58:42.482Z,19.53
2023-04-07T02:01:16.719Z,21.10
2023-04-07T02:03:50.108Z,19.03
2023-04-07T02:06:23.286Z,22.40
2023-04-07T02:08:56.264Z,19.03
2023-04-07T02:11:27.595Z,19.03
2023-04-07T02:14:02.170Z,17.80
2023-04-07T02:16:36.134Z,22.17
2023-04-07T02:19:04.703Z,20.77
2023-04-07T02:21:35.109Z,26.37
2023-04-07T02:24:03.191Z,20.93
2023-04-07T02:26:36.152Z,25.53
2023-04-07T02:29:04.216Z,21.53
2023-04-07T02:31:32.227Z,21.50
2023-04-07T02:34:03.297Z,20.93
2023-04-07T02:36:31.336Z,19.90
2023-04-07T02:38:59.888Z,17.47
2023-04-07T02:41:28.088Z,20.87
2023-04-07T02:43:56.163Z,17.67
2023-04-07T02:46:24.311Z,16.83
2023-04-07T02:48:52.546Z,17.20
2023-04-07T02:51:21.884Z,22.73
2023-04-07T02:53:49.815Z,21.23
2023-04-07T02:56:17.864Z,16.40
2023-04-07T02:58:45.829Z,16.27
2023-04-07T03:01:14.340Z,16.33
2023-04-07T03:03:44.770Z,21.07
2023-04-07T03:06:17.333Z,18.65
2023-04-07T03:09:07.059Z,18.70
2023-04-07T03:11:34.964Z,19.23
2023-04-07T03:14:02.852Z,20.98
2023-04-07T03:16:32.322Z,20.92
2023-04-07T03:19:08.826Z,21.88
2023-04-07T03:21:41.044Z,21.88
2023-04-07T03:24:11.168Z,19.15
2023-04-07T03:26:39.601Z,21.88
2023-04-07T03:29:16.008Z,22.35
2023-04-07T03:31:44.692Z,21.23
2023-04-07T03:34:15.388Z,21.77
2023-04-07T03:36:43.416Z,20.35
2023-04-07T03:39:13.010Z,22.48
2023-04-07T03:41:41.077Z,23.92
2023-04-07T03:44:08.982Z,23.25
2023-04-07T03:46:38.833Z,21.20
2023-04-07T03:49:07.484Z,23.67
2023-04-07T03:51:35.683Z,24.25
2023-04-07T03:54:07.295Z,28.88
2023-04-07T03:56:43.305Z,24.02
2023-04-07T03:59:11.231Z,23.08
2023-04-07T04:01:48.617Z,22.63
2023-04-07T04:04:18.021Z,22.65
2023-04-07T04:06:46.280Z,27.58
2023-04-07T04:09:26.312Z,25.92
2023-04-07T04:11:56.298Z,22.02
2023-04-07T04:14:25.348Z,22.23
2023-04-07T04:16:58.324Z,19.83
2023-04-07T04:19:33.477Z,21.47
2023-04-07T04:22:06.700Z,26.02
2023-04-07T04:24:41.722Z,20.42
2023-04-07T04:27:11.321Z,23.17
2023-04-07T04:29:39.492Z,24.02
2023-04-07T04:32:10.896Z,22.17
2023-04-07T04:34:39.251Z,24.33
2023-04-07T04:37:07.142Z,21.60
2023-04-07T04:39:35.513Z,25.88
2023-04-07T04:42:03.772Z,24.10
2023-04-07T04:44:37.268Z,25.02
2023-04-07T04:47:06.908Z,20.73
2023-04-07T04:49:34.830Z,20.20
2023-04-07T04:52:05.123Z,26.30
2023-04-07T04:54:39.394Z,24.95
2023-04-07T04:57:07.358Z,23.60
2023-04-07T04:59:37.185Z,29.55
2023-04-07T05:02:06.088Z,23.35
2023-04-07T05:04:34.287Z,30.85
2023-04-07T05:07:22.259Z,20.83
2023-04-07T05:09:50.208Z,19.90
2023-04-07T05:12:20.056Z,19.63
2023-04-07T05:14:53.240Z,25.90
2023-04-07T05:17:21.142Z,21.23
2023-04-07T05:19:49.094Z,33.47
2023-04-07T05:22:26.934Z,26.60
2023-04-07T05:24:54.862Z,37.45
2023-04-07T05:27:22.905Z,40.17
2023-04-07T05:29:56.128Z,38.15
2023-04-07T05:32:31.729Z,37.42
2023-04-07T05:35:04.949Z,50.50
2023-04-07T05:37:36.198Z,53.92
2023-04-07T05:40:07.178Z,58.70
2023-04-07T05:42:35.224Z,53.45
2023-04-07T05:45:05.885Z,39.83
2023-04-07T05:47:34.715Z,52.83
2023-04-07T05:50:02.915Z,57.45
2023-04-07T05:52:32.555Z,52.45
2023-04-07T05:55:10.379Z,39.17
2023-04-07T05:57:38.950Z,45.53
2023-04-07T06:00:10.909Z,39.13
2023-04-07T06:02:42.219Z,49.22
2023-04-07T06:05:15.664Z,42.33
2023-04-07T06:07:44.873Z,35.58
2023-04-07T06:10:12.875Z,43.40
2023-04-07T06:12:40.880Z,44.63
2023-04-07T06:15:11.094Z,45.78
2023-04-07T06:17:39.677Z,40.50
2023-04-07T06:20:08.931Z,37.45
2023-04-07T06:22:36.892Z,44.88
2023-04-07T06:25:05.226Z,39.25
2023-04-07T06:27:33.958Z,34.88
2023-04-07T06:30:02.272Z,40.70
2023-04-07T06:32:31.627Z,40.53
2023-04-07T06:34:59.561Z,42.33
2023-04-07T06:37:27.584Z,44.63
2023-04-07T06:39:55.554Z,36.17
2023-04-07T06:42:23.535Z,39.03
2023-04-07T06:45:00.780Z,34.45
2023-04-07T06:47:29.300Z,34.20
2023-04-07T06:49:58.533Z,40.05
2023-04-07T06:52:26.427Z,35.72
2023-04-07T06:54:54.311Z,42.65
2023-04-07T06:57:22.287Z,29.08
2023-04-07T06:59:50.145Z,31.40
2023-04-07T07:02:18.404Z,28.73
2023-04-07T07:04:46.490Z,28.85
2023-04-07T07:07:15.911Z,29.17
2023-04-07T07:09:43.977Z,32.95
2023-04-07T07:12:11.800Z,29.52
2023-04-07T07:14:39.673Z,29.20
2023-04-07T07:17:07.633Z,27.33
2023-04-07T07:19:35.591Z,27.40
2023-04-07T07:22:04.245Z,24.45
2023-04-07T07:24:34.104Z,22.73
2023-04-07T07:27:03.338Z,26.00
2023-04-07T07:29:31.272Z,24.25
2023-04-07T07:31:59.184Z,21.98
2023-04-07T07:34:27.058Z,23.00
2023-04-07T07:36:54.935Z,19.33
2023-04-07T07:39:22.817Z,19.13
2023-04-07T07:41:52.022Z,18.35
2023-04-07T07:44:21.104Z,13.15
2023-04-07T07:46:49.175Z,15.82
2023-04-07T07:49:17.304Z,17.85
2023-04-07T07:51:46.064Z,15.95
2023-04-07T07:54:14.041Z,14.82
2023-04-07T07:56:41.951Z,14.15
2023-04-07T07:59:11.239Z,15.40
2023-04-07T08:01:39.236Z,12.05
2023-04-07T08:04:07.272Z,13.77
2023-04-07T08:06:35.291Z,13.35
2023-04-07T08:09:03.237Z,13.75
2023-04-07T08:11:31.194Z,11.68
2023-04-07T08:13:59.069Z,12.55
2023-04-07T08:16:28.371Z,12.48
2023-04-07T08:18:56.311Z,10.60
2023-04-07T08:21:24.351Z,11.23
2023-04-07T08:23:52.220Z,11.27
2023-04-07T08:26:21.113Z,11.50
2023-04-07T08:28:50.209Z,12.63
2023-04-07T08:31:18.141Z,11.45
2023-04-07T08:33:48.030Z,13.05
2023-04-07T08:36:16.275Z,12.45
2023-04-07T08:38:44.280Z,12.18
2023-04-07T08:41:13.667Z,12.65
2023-04-07T08:43:43.507Z,15.10
2023-04-07T08:46:11.626Z,13.13
2023-04-07T08:48:40.982Z,13.88
2023-04-07T08:51:11.080Z,13.63
2023-04-07T08:53:50.076Z,14.52
2023-04-07T08:56:18.395Z,15.65
2023-04-07T08:58:47.559Z,16.13
2023-04-07T09:01:16.645Z,15.27
2023-04-07T09:03:46.371Z,17.33
2023-04-07T09:06:19.014Z,17.30
2023-04-07T09:08:46.856Z,18.77
2023-04-07T09:11:14.839Z,17.95
2023-04-07T09:13:42.771Z,14.43
2023-04-07T09:16:10.721Z,13.32
2023-04-07T09:18:38.798Z,13.52
2023-04-07T09:21:07.734Z,12.65
2023-04-07T09:23:38.583Z,14.00
2023-04-07T09:26:22.095Z,14.68
2023-04-07T09:28:52.042Z,12.70
2023-04-07T09:31:21.101Z,12.63
2023-04-07T09:33:49.645Z,13.25
2023-04-07T09:36:17.977Z,11.77
2023-04-07T09:38:47.449Z,12.85
2023-04-07T09:41:16.886Z,12.73
2023-04-07T09:43:46.818Z,10.27
2023-04-07T09:46:16.620Z,8.70
2023-04-07T09:48:45.900Z,8.45
2023-04-07T09:51:15.322Z,10.77
2023-04-07T09:53:46.442Z,9.95
2023-04-07T09:56:17.820Z,9.90
2023-04-07T09:58:47.801Z,7.65
2023-04-07T10:01:17.826Z,6.70
2023-04-07T10:03:47.754Z,8.30
2023-04-07T10:06:16.497Z,6.40
2023-04-07T10:08:44.610Z,6.63
2023-04-07T10:11:12.584Z,6.25
2023-04-07T10:13:42.591Z,5.10
2023-04-07T10:16:10.560Z,6.20
2023-04-07T10:18:40.066Z,6.22
2023-04-07T10:21:10.624Z,6.22
2023-04-07T10:23:50.165Z,6.18
2023-04-07T10:26:23.715Z,7.53
2023-04-07T10:28:58.841Z,5.72
2023-04-07T10:31:27.369Z,6.80
2023-04-07T10:33:56.457Z,7.03
2023-04-07T10:36:24.464Z,6.53
2023-04-07T10:39:29.051Z,7.35
2023-04-07T10:41:57.148Z,7.50
2023-04-07T10:44:52.429Z,7.68
2023-04-07T10:47:20.390Z,9.45
2023-04-07T10:50:17.918Z,8.20
2023-04-07T10:52:47.030Z,7.93
2023-04-07T10:55:35.260Z,7.75
2023-04-07T10:58:18.319Z,9.95
2023-04-07T11:01:24.845Z,8.50
2023-04-07T11:03:59.881Z,7.95
2023-04-07T11:06:28.468Z,10.13
2023-04-07T11:08:56.582Z,8.40
2023-04-07T11:11:39.392Z,11.13
2023-04-07T11:14:07.815Z,8.70
2023-04-07T11:16:38.884Z,8.60
2023-04-07T11:19:08.465Z,8.70
2023-04-07T11:21:36.926Z,8.10
2023-04-07T11:24:05.221Z,8.18
2023-04-07T11:26:40.077Z,8.30
2023-04-07T11:29:08.143Z,6.05
2023-04-07T11:31:36.198Z,8.10
2023-04-07T11:34:05.636Z,9.47
2023-04-07T11:36:36.427Z,6.80
2023-04-07T11:39:04.694Z,8.48
2023-04-07T11:41:33.842Z,8.40
2023-04-07T11:44:06.584Z,8.57
2023-04-07T11:46:34.680Z,10.30
2023-04-07T11:49:14.107Z,9.45
2023-04-07T11:51:45.226Z,8.80
2023-04-07T11:54:13.323Z,6.93
2023-04-07T11:56:46.392Z,8.50
2023-04-07T11:59:22.752Z,9.50
2023-04-07T12:01:51.961Z,8.70
2023-04-07T12:04:20.986Z,7.22
2023-04-07T12:06:50.453Z,8.85
2023-04-07T12:09:29.912Z,9.25
2023-04-07T12:11:58.659Z,11.82
2023-04-07T12:14:27.558Z,7.72
2023-04-07T12:16:57.758Z,6.65
2023-04-07T12:19:27.750Z,7.35
2023-04-07T12:21:57.871Z,7.65
2023-04-07T12:24:25.974Z,9.13
2023-04-07T12:26:53.963Z,7.25
2023-04-07T12:29:21.879Z,9.00
2023-04-07T12:31:51.359Z,7.95
2023-04-07T12:34:19.747Z,6.82
2023-04-07T12:36:48.207Z,7.85
2023-04-07T12:39:18.483Z,10.40
2023-04-07T12:41:47.690Z,7.80
2023-04-07T12:44:16.493Z,8.23
2023-04-07T12:46:44.343Z,9.82
2023-04-07T12:49:12.331Z,8.38
2023-04-07T12:51:40.440Z,9.60
2023-04-07T12:54:08.539Z,8.05
2023-04-07T12:56:37.773Z,8.83
2023-04-07T12:59:05.634Z,7.97
2023-04-07T13:01:35.337Z,8.57
2023-04-07T13:04:03.536Z,8.40
2023-04-07T13:06:32.152Z,9.45
2023-04-07T13:09:00.079Z,6.05
2023-04-07T13:11:28.254Z,8.48
2023-04-07T13:13:59.207Z,7.47
2023-04-07T13:16:28.675Z,5.90
2023-04-07T13:18:57.147Z,6.88
2023-04-07T13:23:56.037Z,6.95
2023-04-07T13:26:24.286Z,7.93
2023-04-07T13:28:52.153Z,7.75
2023-04-07T13:31:22.060Z,6.90
2023-04-07T13:33:50.689Z,7.28
2023-04-07T13:36:20.516Z,7.70
2023-04-07T13:38:49.701Z,8.17
2023-04-07T13:41:17.661Z,8.57
2023-04-07T13:43:45.514Z,7.35
2023-04-07T13:46:27.098Z,8.15
2023-04-07T13:48:57.633Z,8.55
2023-04-07T13:51:25.593Z,7.53
2023-04-07T13:53:53.590Z,8.23
2023-04-07T13:56:22.122Z,8.07
2023-04-07T13:58:50.334Z,7.20
2023-04-07T14:01:18.549Z,8.50
2023-04-07T14:03:46.908Z,9.20
2023-04-07T14:06:16.507Z,6.85
2023-04-07T14:08:44.463Z,8.27
2023-04-07T14:11:12.347Z,9.18
2023-04-07T14:13:40.242Z,6.88
2023-04-07T14:16:09.285Z,9.17
2023-04-07T14:18:37.836Z,8.88
2023-04-07T14:21:06.008Z,7.32
2023-04-07T14:23:37.636Z,7.15
2023-04-07T14:26:06.002Z,8.82
2023-04-07T14:28:33.932Z,8.90
2023-04-07T14:31:01.921Z,8.88
2023-04-07T14:33:29.864Z,9.27
2023-04-07T14:35:58.304Z,8.20
2023-04-07T14:38:26.242Z,9.40
2023-04-07T14:40:55.608Z,9.80
2023-04-07T14:43:23.514Z,9.65
2023-04-07T14:45:52.047Z,8.63
2023-04-07T14:48:20.003Z,8.60
2023-04-07T14:50:51.784Z,7.65
2023-04-07T14:53:24.442Z,9.67
2023-04-07T14:55:52.384Z,10.48
2023-04-07T14:58:21.580Z,9.48
2023-04-07T15:00:49.651Z,7.07
2023-04-07T15:03:17.794Z,9.05
2023-04-07T15:05:46.065Z,8.77
2023-04-07T15:08:13.988Z,9.27
2023-04-07T15:10:41.902Z,6.13
2023-04-07T15:13:09.819Z,8.57
2023-04-07T15:15:39.028Z,6.68
2023-04-07T15:18:06.977Z,6.00
2023-04-07T15:20:34.900Z,7.75
2023-04-07T15:23:02.759Z,6.80
2023-04-07T15:25:30.728Z,7.00
2023-04-07T15:27:58.592Z,7.97
2023-04-07T15:30:26.619Z,7.38
2023-04-07T15:33:00.315Z,7.47
2023-04-07T15:35:28.551Z,5.95
2023-04-07T15:37:56.534Z,7.68
2023-04-07T15:40:24.624Z,11.80
2023-04-07T15:42:52.475Z,10.00
2023-04-07T15:45:20.566Z,10.65
2023-04-07T15:47:48.483Z,8.05
2023-04-07T15:50:17.921Z,9.88
2023-04-07T15:52:45.811Z,11.57
2023-04-07T15:55:13.746Z,9.18
2023-04-07T15:57:41.807Z,9.57
2023-04-07T16:00:10.627Z,9.88
2023-04-07T16:02:38.984Z,9.95
2023-04-07T16:05:08.034Z,7.53
2023-04-07T16:07:37.405Z,10.00
2023-04-07T16:10:08.014Z,9.27
2023-04-07T16:12:36.884Z,8.95
2023-04-07T16:15:05.435Z,12.23
2023-04-07T16:17:33.370Z,8.27
2023-04-07T16:20:01.346Z,8.90
2023-04-07T16:22:29.246Z,9.43
2023-04-07T16:24:58.438Z,8.85
2023-04-07T16:27:26.679Z,7.97
2023-04-07T16:29:54.601Z,7.30
2023-04-07T16:32:22.477Z,8.18
2023-04-07T16:34:50.373Z,8.80
2023-04-07T16:37:18.251Z,7.70
2023-04-07T16:39:46.160Z,9.00
2023-04-07T16:42:15.522Z,8.55
2023-04-07T16:44:43.421Z,9.17
2023-04-07T16:47:11.270Z,9.98
2023-04-07T16:49:39.141Z,8.27
2023-04-07T16:52:07.045Z,6.80
2023-04-07T16:54:35.825Z,7.15
2023-04-07T16:57:03.678Z,7.22
2023-04-07T16:59:33.978Z,9.60
2023-04-07T17:02:08.218Z,7.03
2023-04-07T17:04:36.397Z,7.88
2023-04-07T17:07:04.649Z,7.55
2023-04-07T17:09:32.656Z,7.95
2023-04-07T17:12:01.232Z,7.43
2023-04-07T17:14:29.206Z,8.52
2023-04-07T17:16:58.761Z,7.72
2023-04-07T17:19:27.094Z,8.30
2023-04-07T17:21:54.938Z,8.57
2023-04-07T17:24:23.300Z,7.15
2023-04-07T17:26:51.316Z,9.03
2023-04-07T17:29:20.961Z,7.15
2023-04-07T17:31:50.628Z,8.85
2023-04-07T17:34:19.862Z,7.23
2023-04-07T17:36:47.778Z,7.95
2023-04-07T17:39:15.723Z,7.43
2023-04-07T17:44:06.125Z,7.90
2023-04-07T17:46:34.176Z,7.82
2023-04-07T17:49:02.166Z,8.75
2023-04-07T17:51:30.339Z,8.60
2023-04-07T17:53:58.350Z,9.43
2023-04-07T17:56:26.191Z,8.13
2023-04-07T17:58:54.147Z,8.90
2023-04-07T18:01:23.515Z,8.65
2023-04-07T18:03:53.519Z,9.00
2023-04-07T18:06:21.820Z,5.90
2023-04-07T18:08:49.970Z,7.25
2023-04-07T18:11:18.613Z,8.15
2023-04-07T18:13:46.790Z,9.40
2023-04-07T18:16:18.683Z,6.82
2023-04-07T18:18:49.882Z,8.77
2023-04-07T18:21:17.855Z,9.10
2023-04-07T18:23:45.858Z,9.40
2023-04-07T18:26:14.661Z,8.75
2023-04-07T18:28:42.605Z,8.10
2023-04-07T18:31:10.987Z,10.43
2023-04-07T18:33:38.918Z,9.77
2023-04-07T18:36:08.987Z,8.57
2023-04-07T18:38:38.019Z,11.52
2023-04-07T18:41:07.865Z,9.88
2023-04-07T18:43:35.877Z,9.85
2023-04-07T18:46:03.811Z,7.82
2023-04-07T18:48:31.929Z,9.73
2023-04-07T18:50:59.838Z,12.02
2023-04-07T18:53:29.103Z,9.25
2023-04-07T18:55:57.021Z,9.25
2023-04-07T18:58:24.884Z,8.43
2023-04-07T19:00:53.280Z,11.63
2023-04-07T19:03:21.647Z,8.20
2023-04-07T19:05:52.599Z,8.65
2023-04-07T19:08:20.736Z,11.07
2023-04-07T19:10:51.129Z,9.10
2023-04-07T19:13:19.544Z,9.02
2023-04-07T19:15:47.683Z,12.52
2023-04-07T19:18:15.875Z,12.18
2023-04-07T19:20:43.993Z,9.63
2023-04-07T19:23:11.871Z,11.05
2023-04-07T19:25:40.233Z,11.15
2023-04-07T19:28:09.523Z,9.60
2023-04-07T19:30:37.399Z,9.38
2023-04-07T19:33:05.436Z,12.35
2023-04-07T19:35:33.851Z,10.13
2023-04-07T19:38:02.065Z,10.82
2023-04-07T19:40:31.368Z,11.10
2023-04-07T19:42:59.309Z,9.32
2023-04-07T19:45:28.680Z,11.52
2023-04-07T19:47:56.824Z,9.97
2023-04-07T19:50:25.075Z,10.55
2023-04-07T19:52:53.323Z,10.93
2023-04-07T19:55:21.750Z,10.45
2023-04-07T19:57:49.601Z,11.80
2023-04-07T20:00:18.536Z,13.93
2023-04-07T20:02:50.758Z,11.63
2023-04-07T20:05:19.483Z,10.43
2023-04-07T20:07:47.463Z,9.48
2023-04-07T20:10:15.562Z,9.05
2023-04-07T20:12:43.436Z,10.57
2023-04-07T20:15:11.895Z,11.05
2023-04-07T20:17:39.942Z,12.32
2023-04-07T20:20:10.199Z,13.27
2023-04-07T20:22:38.086Z,11.13
2023-04-07T20:25:06.749Z,10.93
2023-04-07T20:27:34.933Z,11.88
2023-04-07T20:30:03.341Z,12.23
2023-04-07T20:32:31.242Z,12.52
2023-04-07T20:34:59.231Z,14.07
2023-04-07T20:37:28.456Z,11.40
2023-04-07T20:39:56.401Z,13.70
2023-04-07T20:42:24.300Z,12.73
2023-04-07T20:44:53.244Z,11.23
2023-04-07T20:47:21.171Z,13.43
2023-04-07T20:49:49.041Z,12.23
2023-04-07T20:52:17.169Z,12.98
2023-04-07T20:54:47.781Z,11.80
2023-04-07T20:57:16.036Z,13.73
2023-04-07T20:59:43.930Z,13.25
2023-04-07T21:02:12.015Z,15.57
2023-04-07T21:04:40.007Z,15.43
2023-04-07T21:07:07.840Z,12.38
2023-04-07T21:09:35.736Z,14.20
2023-04-07T21:12:05.034Z,13.80
2023-04-07T21:14:33.059Z,17.65
2023-04-07T21:17:01.025Z,15.32
2023-04-07T21:19:29.662Z,15.07
2023-04-07T21:21:57.729Z,13.70
2023-04-07T21:24:25.625Z,14.15
2023-04-07T21:26:54.566Z,14.10
2023-04-07T21:29:23.833Z,15.05
2023-04-07T21:31:52.710Z,16.02
2023-04-07T21:34:20.717Z,16.30
2023-04-07T21:36:48.672Z,12.90
2023-04-07T21:39:16.626Z,14.48
2023-04-07T21:41:44.528Z,16.10
2023-04-07T21:44:13.186Z,14.50
2023-04-07T21:46:42.440Z,14.18
2023-04-07T21:49:10.336Z,16.45
2023-04-07T21:51:38.535Z,14.27
2023-04-07T21:54:06.671Z,13.95
2023-04-07T21:56:34.870Z,14.43
2023-04-07T21:59:03.806Z,16.27
2023-04-07T22:01:31.757Z,16.02
2023-04-07T22:04:01.244Z,14.40
2023-04-07T22:06:29.160Z,14.48
2023-04-07T22:09:01.523Z,11.93
2023-04-07T22:11:30.337Z,13.57
2023-04-07T22:13:58.239Z,14.32
2023-04-07T22:16:26.222Z,13.38
2023-04-07T22:18:54.153Z,14.75
2023-04-07T22:21:23.425Z,16.13
2023-04-07T22:23:51.252Z,14.85
2023-04-07T22:26:19.127Z,15.87
2023-04-07T22:28:46.969Z,13.55
2023-04-07T22:31:14.923Z,13.70
2023-04-07T22:33:42.933Z,12.68
2023-04-07T22:36:10.896Z,14.18
2023-04-07T22:38:40.175Z,13.45
2023-04-07T22:41:07.995Z,13.57
2023-04-07T22:43:35.922Z,15.30
2023-04-07T22:46:03.808Z,15.68
2023-04-07T22:48:31.695Z,16.15
2023-04-07T22:50:59.537Z,16.13
2023-04-07T22:53:27.523Z,13.65
2023-04-07T22:55:57.122Z,15.57
2023-04-07T22:58:24.982Z,15.65
2023-04-07T23:00:52.921Z,13.82
2023-04-07T23:03:21.034Z,16.73
2023-04-07T23:05:49.059Z,14.80
2023-04-07T23:08:16.966Z,13.88
2023-04-07T23:10:44.825Z,15.35
2023-04-07T23:13:15.118Z,15.48
2023-04-07T23:15:42.971Z,16.30
2023-04-07T23:18:11.097Z,14.73
2023-04-07T23:20:39.197Z,15.52
2023-04-07T23:23:07.367Z,16.37
2023-04-07T23:25:35.519Z,16.75
2023-04-07T23:28:03.459Z,14.63
2023-04-07T23:30:32.671Z,13.80
2023-04-07T23:33:00.732Z,15.93
2023-04-07T23:35:28.672Z,14.98
2023-04-07T23:37:56.777Z,16.08
2023-04-07T23:40:24.627Z,15.85
2023-04-07T23:42:52.517Z,15.73
2023-04-07T23:45:20.746Z,18.92
2023-04-07T23:47:50.049Z,17.08
2023-04-07T23:50:18.010Z,18.13
2023-04-07T23:52:46.079Z,18.10
2023-04-07T23:55:14.105Z,17.17
2023-04-07T23:57:41.964Z,18.35
